sensor_id;sensor_type;location;lat;lon;timestamp;P1;durP1;ratioP1;P2;durP2;ratioP2
68593;SDS011;55563;52.416;13.548;2023-04-01T00:01:39;2.58;;;1.00;;
68593;SDS011;55563;52.416;13.548;2023-04-01T00:02:32;1.20;;;0.90;;
68593;SDS011;55563;52.416;13.548;2023-04-01T00:04:33;1.00;;;0.90;;
68593;SDS011;55563;52.416;13.548;2023-04-01T00:06:34;1.58;;;1.17;;
68593;SDS011;55563;52.416;13.548;2023-04-01T00:08:34;1.70;;;1.00;;
68593;SDS011;55563;52.416;13.548;2023-04-01T00:10:35;1.58;;;0.90;;
68593;SDS011;55563;52.416;13.548;2023-04-01T00:12:36;1.50;;;0.90;;
68593;SDS011;55563;52.416;13.548;2023-04-01T00:14:37;2.95;;;1.38;;
68593;SDS011;55563;52.416;13.548;2023-04-01T00:16:38;1.08;;;0.90;;
68593;SDS011;55563;52.416;13.548;2023-04-01T00:18:39;2.28;;;1.30;;
68593;SDS011;55563;52.416;13.548;2023-04-01T00:20:43;1.58;;;1.00;;
68593;SDS011;55563;52.416;13.548;2023-04-01T00:22:45;1.60;;;0.90;;
68593;SDS011;55563;52.416;13.548;2023-04-01T00:24:46;1.52;;;0.90;;
68593;SDS011;55563;52.416;13.548;2023-04-01T00:26:47;1.15;;;0.80;;
68593;SDS011;55563;52.416;13.548;2023-04-01T00:28:49;1.25;;;0.90;;
68593;SDS011;55563;52.416;13.548;2023-04-01T00:30:50;1.63;;;1.13;;
68593;SDS011;55563;52.416;13.548;2023-04-01T00:32:51;1.48;;;1.23;;
68593;SDS011;55563;52.416;13.548;2023-04-01T00:34:53;1.33;;;1.00;;
68593;SDS011;55563;52.416;13.548;2023-04-01T00:36:54;2.03;;;1.00;;
68593;SDS011;55563;52.416;13.548;2023-04-01T00:38:54;1.65;;;1.20;;
68593;SDS011;55563;52.416;13.548;2023-04-01T00:40:57;1.10;;;0.90;;
68593;SDS011;55563;52.416;13.548;2023-04-01T00:42:58;1.17;;;0.82;;
68593;SDS011;55563;52.416;13.548;2023-04-01T00:45:21;1.23;;;1.02;;
68593;SDS011;55563;52.416;13.548;2023-04-01T00:47:37;1.25;;;1.08;;
68593;SDS011;55563;52.416;13.548;2023-04-01T00:49:39;1.70;;;0.90;;
68593;SDS011;55563;52.416;13.548;2023-04-01T00:51:42;1.45;;;1.17;;
68593;SDS011;55563;52.416;13.548;2023-04-01T00:53:47;1.20;;;1.00;;
68593;SDS011;55563;52.416;13.548;2023-04-01T00:55:51;1.38;;;1.00;;
68593;SDS011;55563;52.416;13.548;2023-04-01T00:57:57;1.70;;;1.10;;
68593;SDS011;55563;52.416;13.548;2023-04-01T01:00:00;1.60;;;1.13;;
68593;SDS011;55563;52.416;13.548;2023-04-01T01:02:02;1.52;;;1.17;;
68593;SDS011;55563;52.416;13.548;2023-04-01T01:04:06;1.15;;;1.02;;
68593;SDS011;55563;52.416;13.548;2023-04-01T01:08:44;2.15;;;1.00;;
68593;SDS011;55563;52.416;13.548;2023-04-01T01:11:08;1.63;;;1.02;;
68593;SDS011;55563;52.416;13.548;2023-04-01T01:18:03;1.63;;;0.95;;
68593;SDS011;55563;52.416;13.548;2023-04-01T01:20:31;1.60;;;1.25;;
68593;SDS011;55563;52.416;13.548;2023-04-01T01:22:57;2.65;;;1.70;;
68593;SDS011;55563;52.416;13.548;2023-04-01T01:25:34;1.90;;;1.55;;
68593;SDS011;55563;52.416;13.548;2023-04-01T01:27:51;1.70;;;1.42;;
68593;SDS011;55563;52.416;13.548;2023-04-01T01:30:04;1.10;;;1.00;;
68593;SDS011;55563;52.416;13.548;2023-04-01T01:32:41;2.08;;;1.25;;
68593;SDS011;55563;52.416;13.548;2023-04-01T01:37:27;1.52;;;1.10;;
68593;SDS011;55563;52.416;13.548;2023-04-01T01:39:31;2.92;;;1.60;;
68593;SDS011;55563;52.416;13.548;2023-04-01T01:41:35;2.25;;;1.08;;
68593;SDS011;55563;52.416;13.548;2023-04-01T01:43:40;1.73;;;1.13;;
68593;SDS011;55563;52.416;13.548;2023-04-01T01:45:48;1.67;;;1.15;;
68593;SDS011;55563;52.416;13.548;2023-04-01T01:47:53;1.85;;;1.00;;
68593;SDS011;55563;52.416;13.548;2023-04-01T01:49:56;1.02;;;0.90;;
68593;SDS011;55563;52.416;13.548;2023-04-01T01:51:57;1.98;;;1.15;;
68593;SDS011;55563;52.416;13.548;2023-04-01T01:53:58;1.88;;;0.93;;
68593;SDS011;55563;52.416;13.548;2023-04-01T01:55:59;1.83;;;1.15;;
68593;SDS011;55563;52.416;13.548;2023-04-01T01:58:04;1.88;;;1.00;;
68593;SDS011;55563;52.416;13.548;2023-04-01T02:00:13;1.38;;;1.00;;
68593;SDS011;55563;52.416;13.548;2023-04-01T02:02:17;2.25;;;1.10;;
68593;SDS011;55563;52.416;13.548;2023-04-01T02:04:19;1.25;;;1.15;;
68593;SDS011;55563;52.416;13.548;2023-04-01T02:06:23;1.25;;;1.02;;
68593;SDS011;55563;52.416;13.548;2023-04-01T02:08:35;1.67;;;1.30;;
68593;SDS011;55563;52.416;13.548;2023-04-01T02:10:59;1.38;;;1.13;;
68593;SDS011;55563;52.416;13.548;2023-04-01T02:13:16;1.80;;;1.30;;
68593;SDS011;55563;52.416;13.548;2023-04-01T02:15:22;1.67;;;1.23;;
68593;SDS011;55563;52.416;13.548;2023-04-01T02:17:27;1.27;;;1.02;;
68593;SDS011;55563;52.416;13.548;2023-04-01T02:19:32;2.17;;;0.90;;
68593;SDS011;55563;52.416;13.548;2023-04-01T02:21:38;2.88;;;1.75;;
68593;SDS011;55563;52.416;13.548;2023-04-01T02:23:40;2.17;;;1.13;;
68593;SDS011;55563;52.416;13.548;2023-04-01T02:25:42;1.08;;;0.95;;
68593;SDS011;55563;52.416;13.548;2023-04-01T02:27:45;1.80;;;1.10;;
68593;SDS011;55563;52.416;13.548;2023-04-01T02:29:46;1.90;;;1.20;;
68593;SDS011;55563;52.416;13.548;2023-04-01T02:31:47;2.13;;;1.20;;
68593;SDS011;55563;52.416;13.548;2023-04-01T02:33:50;1.95;;;1.35;;
68593;SDS011;55563;52.416;13.548;2023-04-01T02:37:55;1.42;;;1.13;;
68593;SDS011;55563;52.416;13.548;2023-04-01T02:39:59;1.77;;;1.05;;
68593;SDS011;55563;52.416;13.548;2023-04-01T02:42:01;1.90;;;1.10;;
68593;SDS011;55563;52.416;13.548;2023-04-01T02:44:03;1.85;;;1.17;;
68593;SDS011;55563;52.416;13.548;2023-04-01T02:46:03;3.67;;;1.00;;
68593;SDS011;55563;52.416;13.548;2023-04-01T02:48:04;1.60;;;1.00;;
68593;SDS011;55563;52.416;13.548;2023-04-01T02:52:07;1.15;;;0.90;;
68593;SDS011;55563;52.416;13.548;2023-04-01T02:54:07;1.15;;;1.05;;
68593;SDS011;55563;52.416;13.548;2023-04-01T02:56:08;2.03;;;1.23;;
68593;SDS011;55563;52.416;13.548;2023-04-01T02:58:09;1.92;;;1.20;;
68593;SDS011;55563;52.416;13.548;2023-04-01T03:00:10;2.85;;;1.15;;
68593;SDS011;55563;52.416;13.548;2023-04-01T03:02:11;1.73;;;1.10;;
68593;SDS011;55563;52.416;13.548;2023-04-01T03:04:12;2.20;;;1.20;;
68593;SDS011;55563;52.416;13.548;2023-04-01T03:06:13;1.80;;;1.30;;
68593;SDS011;55563;52.416;13.548;2023-04-01T03:08:16;1.30;;;0.98;;
68593;SDS011;55563;52.416;13.548;2023-04-01T03:10:17;1.40;;;1.13;;
68593;SDS011;55563;52.416;13.548;2023-04-01T03:12:18;1.58;;;1.20;;
68593;SDS011;55563;52.416;13.548;2023-04-01T03:14:24;1.75;;;1.23;;
68593;SDS011;55563;52.416;13.548;2023-04-01T03:16:25;1.42;;;1.20;;
68593;SDS011;55563;52.416;13.548;2023-04-01T03:18:26;1.40;;;1.10;;
68593;SDS011;55563;52.416;13.548;2023-04-01T03:20:26;11.25;;;1.70;;
68593;SDS011;55563;52.416;13.548;2023-04-01T03:22:27;1.98;;;1.08;;
68593;SDS011;55563;52.416;13.548;2023-04-01T03:24:28;2.17;;;1.40;;
68593;SDS011;55563;52.416;13.548;2023-04-01T03:26:28;2.55;;;2.00;;
68593;SDS011;55563;52.416;13.548;2023-04-01T03:28:29;2.15;;;1.48;;
68593;SDS011;55563;52.416;13.548;2023-04-01T03:30:30;1.65;;;1.10;;
68593;SDS011;55563;52.416;13.548;2023-04-01T03:32:31;2.20;;;1.42;;
68593;SDS011;55563;52.416;13.548;2023-04-01T03:36:33;2.63;;;1.20;;
68593;SDS011;55563;52.416;13.548;2023-04-01T03:38:34;2.13;;;1.30;;
68593;SDS011;55563;52.416;13.548;2023-04-01T03:40:35;2.42;;;1.30;;
68593;SDS011;55563;52.416;13.548;2023-04-01T03:42:40;2.17;;;1.33;;
68593;SDS011;55563;52.416;13.548;2023-04-01T03:44:40;2.70;;;1.15;;
68593;SDS011;55563;52.416;13.548;2023-04-01T03:46:44;2.55;;;1.45;;
68593;SDS011;55563;52.416;13.548;2023-04-01T03:48:44;1.83;;;1.20;;
68593;SDS011;55563;52.416;13.548;2023-04-01T03:50:46;1.73;;;1.27;;
68593;SDS011;55563;52.416;13.548;2023-04-01T03:52:48;1.63;;;1.20;;
68593;SDS011;55563;52.416;13.548;2023-04-01T03:54:48;2.30;;;1.45;;
68593;SDS011;55563;52.416;13.548;2023-04-01T03:56:49;3.20;;;1.38;;
68593;SDS011;55563;52.416;13.548;2023-04-01T03:58:50;2.75;;;1.33;;
68593;SDS011;55563;52.416;13.548;2023-04-01T04:00:51;1.40;;;1.10;;
68593;SDS011;55563;52.416;13.548;2023-04-01T04:02:51;1.35;;;1.25;;
68593;SDS011;55563;52.416;13.548;2023-04-01T04:04:58;1.95;;;1.15;;
68593;SDS011;55563;52.416;13.548;2023-04-01T04:07:01;1.80;;;1.30;;
68593;SDS011;55563;52.416;13.548;2023-04-01T04:09:06;1.67;;;1.20;;
68593;SDS011;55563;52.416;13.548;2023-04-01T04:11:07;2.53;;;1.40;;
68593;SDS011;55563;52.416;13.548;2023-04-01T04:13:11;2.75;;;1.23;;
68593;SDS011;55563;52.416;13.548;2023-04-01T04:15:18;2.17;;;1.40;;
68593;SDS011;55563;52.416;13.548;2023-04-01T04:17:19;2.83;;;1.63;;
68593;SDS011;55563;52.416;13.548;2023-04-01T04:19:20;1.92;;;1.10;;
68593;SDS011;55563;52.416;13.548;2023-04-01T04:21:21;2.00;;;1.65;;
68593;SDS011;55563;52.416;13.548;2023-04-01T04:23:22;2.83;;;1.60;;
68593;SDS011;55563;52.416;13.548;2023-04-01T04:25:22;2.85;;;1.70;;
68593;SDS011;55563;52.416;13.548;2023-04-01T04:27:23;2.05;;;1.35;;
68593;SDS011;55563;52.416;13.548;2023-04-01T04:29:40;2.88;;;1.55;;
68593;SDS011;55563;52.416;13.548;2023-04-01T04:31:40;2.05;;;1.48;;
68593;SDS011;55563;52.416;13.548;2023-04-01T04:33:41;2.60;;;1.40;;
68593;SDS011;55563;52.416;13.548;2023-04-01T04:35:42;2.15;;;1.50;;
68593;SDS011;55563;52.416;13.548;2023-04-01T04:37:43;2.25;;;1.80;;
68593;SDS011;55563;52.416;13.548;2023-04-01T04:39:44;3.00;;;1.73;;
68593;SDS011;55563;52.416;13.548;2023-04-01T04:41:45;1.83;;;1.42;;
68593;SDS011;55563;52.416;13.548;2023-04-01T04:45:49;2.47;;;1.50;;
68593;SDS011;55563;52.416;13.548;2023-04-01T04:47:51;2.17;;;1.20;;
68593;SDS011;55563;52.416;13.548;2023-04-01T04:49:51;1.73;;;1.50;;
68593;SDS011;55563;52.416;13.548;2023-04-01T04:51:52;2.90;;;1.73;;
68593;SDS011;55563;52.416;13.548;2023-04-01T04:53:56;2.80;;;1.83;;
68593;SDS011;55563;52.416;13.548;2023-04-01T04:56:07;1.67;;;1.40;;
68593;SDS011;55563;52.416;13.548;2023-04-01T04:58:19;2.35;;;1.70;;
68593;SDS011;55563;52.416;13.548;2023-04-01T05:00:20;2.45;;;1.90;;
68593;SDS011;55563;52.416;13.548;2023-04-01T05:02:27;3.13;;;2.00;;
68593;SDS011;55563;52.416;13.548;2023-04-01T05:04:29;2.97;;;2.10;;
68593;SDS011;55563;52.416;13.548;2023-04-01T05:06:29;3.30;;;2.17;;
68593;SDS011;55563;52.416;13.548;2023-04-01T05:08:31;4.22;;;2.10;;
68593;SDS011;55563;52.416;13.548;2023-04-01T05:10:33;3.38;;;1.90;;
68593;SDS011;55563;52.416;13.548;2023-04-01T05:12:34;3.65;;;2.13;;
68593;SDS011;55563;52.416;13.548;2023-04-01T05:14:38;3.45;;;2.30;;
68593;SDS011;55563;52.416;13.548;2023-04-01T05:16:43;3.72;;;2.00;;
68593;SDS011;55563;52.416;13.548;2023-04-01T05:18:44;4.38;;;2.45;;
68593;SDS011;55563;52.416;13.548;2023-04-01T05:20:47;5.10;;;2.30;;
68593;SDS011;55563;52.416;13.548;2023-04-01T05:22:50;4.15;;;2.50;;
68593;SDS011;55563;52.416;13.548;2023-04-01T05:24:55;4.00;;;2.40;;
68593;SDS011;55563;52.416;13.548;2023-04-01T05:26:57;4.28;;;2.42;;
68593;SDS011;55563;52.416;13.548;2023-04-01T05:28:58;4.00;;;2.30;;
68593;SDS011;55563;52.416;13.548;2023-04-01T05:31:00;7.13;;;3.25;;
68593;SDS011;55563;52.416;13.548;2023-04-01T05:33:07;4.97;;;2.90;;
68593;SDS011;55563;52.416;13.548;2023-04-01T05:35:09;4.47;;;2.88;;
68593;SDS011;55563;52.416;13.548;2023-04-01T05:39:11;4.32;;;2.47;;
68593;SDS011;55563;52.416;13.548;2023-04-01T05:41:14;3.65;;;2.60;;
68593;SDS011;55563;52.416;13.548;2023-04-01T05:43:18;4.38;;;2.70;;
68593;SDS011;55563;52.416;13.548;2023-04-01T05:45:22;4.50;;;2.67;;
68593;SDS011;55563;52.416;13.548;2023-04-01T05:47:43;5.38;;;3.00;;
68593;SDS011;55563;52.416;13.548;2023-04-01T05:49:43;6.25;;;3.60;;
68593;SDS011;55563;52.416;13.548;2023-04-01T05:51:44;4.43;;;3.00;;
68593;SDS011;55563;52.416;13.548;2023-04-01T05:53:45;4.82;;;2.92;;
68593;SDS011;55563;52.416;13.548;2023-04-01T05:55:46;3.95;;;2.30;;
68593;SDS011;55563;52.416;13.548;2023-04-01T05:57:48;3.72;;;2.40;;
68593;SDS011;55563;52.416;13.548;2023-04-01T05:59:49;3.45;;;2.38;;
68593;SDS011;55563;52.416;13.548;2023-04-01T06:01:50;3.67;;;2.00;;
68593;SDS011;55563;52.416;13.548;2023-04-01T06:03:53;3.80;;;2.35;;
68593;SDS011;55563;52.416;13.548;2023-04-01T06:05:54;4.65;;;2.70;;
68593;SDS011;55563;52.416;13.548;2023-04-01T06:07:59;3.60;;;1.73;;
68593;SDS011;55563;52.416;13.548;2023-04-01T06:10:09;3.35;;;1.90;;
68593;SDS011;55563;52.416;13.548;2023-04-01T06:14:39;2.47;;;1.80;;
68593;SDS011;55563;52.416;13.548;2023-04-01T06:19:36;1.95;;;1.50;;
68593;SDS011;55563;52.416;13.548;2023-04-01T06:24:28;3.53;;;2.15;;
68593;SDS011;55563;52.416;13.548;2023-04-01T06:36:42;3.08;;;2.10;;
68593;SDS011;55563;52.416;13.548;2023-04-01T06:44:18;3.35;;;2.13;;
68593;SDS011;55563;52.416;13.548;2023-04-01T06:46:57;3.55;;;2.22;;
68593;SDS011;55563;52.416;13.548;2023-04-01T06:52:24;2.10;;;1.80;;
68593;SDS011;55563;52.416;13.548;2023-04-01T06:54:53;4.80;;;2.50;;
68593;SDS011;55563;52.416;13.548;2023-04-01T06:57:54;2.35;;;1.92;;
68593;SDS011;55563;52.416;13.548;2023-04-01T06:59:45;1.95;;;1.67;;
68593;SDS011;55563;52.416;13.548;2023-04-01T07:01:49;2.83;;;1.52;;
68593;SDS011;55563;52.416;13.548;2023-04-01T07:03:56;3.50;;;2.60;;
68593;SDS011;55563;52.416;13.548;2023-04-01T07:06:03;5.85;;;3.53;;
68593;SDS011;55563;52.416;13.548;2023-04-01T07:08:15;3.10;;;2.17;;
68593;SDS011;55563;52.416;13.548;2023-04-01T07:13:24;4.30;;;2.17;;
68593;SDS011;55563;52.416;13.548;2023-04-01T07:15:36;3.88;;;2.00;;
68593;SDS011;55563;52.416;13.548;2023-04-01T07:17:42;4.20;;;1.40;;
68593;SDS011;55563;52.416;13.548;2023-04-01T07:19:45;3.03;;;2.40;;
68593;SDS011;55563;52.416;13.548;2023-04-01T07:21:56;3.08;;;2.40;;
68593;SDS011;55563;52.416;13.548;2023-04-01T07:24:22;3.85;;;2.42;;
68593;SDS011;55563;52.416;13.548;2023-04-01T07:26:36;3.53;;;2.50;;
68593;SDS011;55563;52.416;13.548;2023-04-01T07:28:42;3.67;;;2.60;;
68593;SDS011;55563;52.416;13.548;2023-04-01T07:33:23;3.20;;;2.42;;
68593;SDS011;55563;52.416;13.548;2023-04-01T07:35:36;4.50;;;2.85;;
68593;SDS011;55563;52.416;13.548;2023-04-01T07:38:20;5.72;;;2.65;;
68593;SDS011;55563;52.416;13.548;2023-04-01T07:40:26;3.13;;;2.25;;
68593;SDS011;55563;52.416;13.548;2023-04-01T07:42:41;3.53;;;2.33;;
68593;SDS011;55563;52.416;13.548;2023-04-01T07:52:21;2.80;;;2.22;;
68593;SDS011;55563;52.416;13.548;2023-04-01T07:54:50;2.83;;;1.60;;
68593;SDS011;55563;52.416;13.548;2023-04-01T07:57:22;4.03;;;1.90;;
68593;SDS011;55563;52.416;13.548;2023-04-01T08:00:02;3.30;;;2.58;;
68593;SDS011;55563;52.416;13.548;2023-04-01T08:04:53;3.70;;;1.92;;
68593;SDS011;55563;52.416;13.548;2023-04-01T08:07:07;4.05;;;2.20;;
68593;SDS011;55563;52.416;13.548;2023-04-01T08:09:33;3.40;;;1.77;;
68593;SDS011;55563;52.416;13.548;2023-04-01T08:12:55;3.20;;;1.60;;
68593;SDS011;55563;52.416;13.548;2023-04-01T08:15:09;3.45;;;2.13;;
68593;SDS011;55563;52.416;13.548;2023-04-01T08:17:39;4.22;;;2.72;;
68593;SDS011;55563;52.416;13.548;2023-04-01T08:20:14;4.07;;;2.92;;
68593;SDS011;55563;52.416;13.548;2023-04-01T08:22:29;4.13;;;2.78;;
68593;SDS011;55563;52.416;13.548;2023-04-01T08:24:41;4.47;;;2.50;;
68593;SDS011;55563;52.416;13.548;2023-04-01T08:26:45;3.47;;;2.90;;
68593;SDS011;55563;52.416;13.548;2023-04-01T08:28:54;5.00;;;3.05;;
68593;SDS011;55563;52.416;13.548;2023-04-01T08:31:16;4.05;;;3.03;;
68593;SDS011;55563;52.416;13.548;2023-04-01T08:33:26;4.47;;;2.90;;
68593;SDS011;55563;52.416;13.548;2023-04-01T08:35:41;4.18;;;2.15;;
68593;SDS011;55563;52.416;13.548;2023-04-01T08:37:50;4.30;;;2.65;;
68593;SDS011;55563;52.416;13.548;2023-04-01T08:39:59;3.28;;;2.50;;
68593;SDS011;55563;52.416;13.548;2023-04-01T08:50:23;2.67;;;2.20;;
68593;SDS011;55563;52.416;13.548;2023-04-01T08:55:22;2.53;;;1.80;;
68593;SDS011;55563;52.416;13.548;2023-04-01T09:10:39;3.55;;;2.03;;
68593;SDS011;55563;52.416;13.548;2023-04-01T09:21:31;4.25;;;2.50;;
68593;SDS011;55563;52.416;13.548;2023-04-01T09:26:33;2.92;;;1.55;;
68593;SDS011;55563;52.416;13.548;2023-04-01T09:29:36;2.50;;;1.65;;
68593;SDS011;55563;52.416;13.548;2023-04-01T09:32:15;2.42;;;1.67;;
68593;SDS011;55563;52.416;13.548;2023-04-01T09:37:21;1.85;;;1.30;;
68593;SDS011;55563;52.416;13.548;2023-04-01T09:39:38;2.35;;;1.55;;
68593;SDS011;55563;52.416;13.548;2023-04-01T09:44:52;2.63;;;1.90;;
68593;SDS011;55563;52.416;13.548;2023-04-01T09:49:49;1.77;;;1.45;;
68593;SDS011;55563;52.416;13.548;2023-04-01T09:52:50;2.53;;;1.65;;
68593;SDS011;55563;52.416;13.548;2023-04-01T09:58:29;2.30;;;1.73;;
68593;SDS011;55563;52.416;13.548;2023-04-01T10:03:03;2.95;;;1.85;;
68593;SDS011;55563;52.416;13.548;2023-04-01T10:15:24;2.03;;;1.80;;
68593;SDS011;55563;52.416;13.548;2023-04-01T10:18:07;1.75;;;1.17;;
68593;SDS011;55563;52.416;13.548;2023-04-01T10:20:34;2.33;;;1.20;;
68593;SDS011;55563;52.416;13.548;2023-04-01T10:27:46;1.67;;;1.58;;
68593;SDS011;55563;52.416;13.548;2023-04-01T10:33:38;2.10;;;1.90;;
68593;SDS011;55563;52.416;13.548;2023-04-01T10:35:50;2.28;;;2.08;;
68593;SDS011;55563;52.416;13.548;2023-04-01T10:40:53;1.55;;;1.35;;
68593;SDS011;55563;52.416;13.548;2023-04-01T10:46:21;2.08;;;1.63;;
68593;SDS011;55563;52.416;13.548;2023-04-01T10:51:17;1.30;;;1.10;;
68593;SDS011;55563;52.416;13.548;2023-04-01T10:53:46;1.63;;;1.30;;
68593;SDS011;55563;52.416;13.548;2023-04-01T11:07:10;1.08;;;0.90;;
68593;SDS011;55563;52.416;13.548;2023-04-01T11:28:42;1.23;;;1.10;;
68593;SDS011;55563;52.416;13.548;2023-04-01T11:33:43;2.10;;;1.90;;
68593;SDS011;55563;52.416;13.548;2023-04-01T11:41:22;2.00;;;1.90;;
68593;SDS011;55563;52.416;13.548;2023-04-01T11:44:26;1.35;;;1.13;;
68593;SDS011;55563;52.416;13.548;2023-04-01T11:49:48;1.90;;;1.10;;
68593;SDS011;55563;52.416;13.548;2023-04-01T11:52:05;1.35;;;1.02;;
68593;SDS011;55563;52.416;13.548;2023-04-01T11:55:10;1.23;;;1.10;;
68593;SDS011;55563;52.416;13.548;2023-04-01T12:01:59;2.05;;;1.00;;
68593;SDS011;55563;52.416;13.548;2023-04-01T12:09:20;1.35;;;1.25;;
68593;SDS011;55563;52.416;13.548;2023-04-01T12:16:51;2.83;;;1.80;;
68593;SDS011;55563;52.416;13.548;2023-04-01T12:18:55;2.55;;;1.90;;
68593;SDS011;55563;52.416;13.548;2023-04-01T12:21:09;1.25;;;1.15;;
68593;SDS011;55563;52.416;13.548;2023-04-01T12:23:41;1.30;;;1.17;;
68593;SDS011;55563;52.416;13.548;2023-04-01T12:26:23;2.20;;;1.60;;
68593;SDS011;55563;52.416;13.548;2023-04-01T12:31:19;2.60;;;2.03;;
68593;SDS011;55563;52.416;13.548;2023-04-01T12:45:55;2.20;;;1.50;;
68593;SDS011;55563;52.416;13.548;2023-04-01T12:48:27;1.42;;;1.20;;
68593;SDS011;55563;52.416;13.548;2023-04-01T12:55:45;2.15;;;1.60;;
68593;SDS011;55563;52.416;13.548;2023-04-01T13:02:53;2.80;;;2.50;;
68593;SDS011;55563;52.416;13.548;2023-04-01T13:07:36;2.25;;;2.05;;
68593;SDS011;55563;52.416;13.548;2023-04-01T13:12:55;2.20;;;2.00;;
68593;SDS011;55563;52.416;13.548;2023-04-01T13:24:49;2.53;;;1.67;;
68593;SDS011;55563;52.416;13.548;2023-04-01T13:27:21;1.67;;;1.35;;
68593;SDS011;55563;52.416;13.548;2023-04-01T13:29:36;2.17;;;1.63;;
68593;SDS011;55563;52.416;13.548;2023-04-01T13:32:16;1.75;;;1.30;;
68593;SDS011;55563;52.416;13.548;2023-04-01T13:39:35;2.10;;;1.60;;
68593;SDS011;55563;52.416;13.548;2023-04-01T13:44:49;1.73;;;1.40;;
68593;SDS011;55563;52.416;13.548;2023-04-01T13:49:30;2.92;;;2.15;;
68593;SDS011;55563;52.416;13.548;2023-04-01T13:54:18;2.28;;;1.42;;
68593;SDS011;55563;52.416;13.548;2023-04-01T13:58:57;2.03;;;1.60;;
68593;SDS011;55563;52.416;13.548;2023-04-01T14:01:35;1.85;;;1.30;;
68593;SDS011;55563;52.416;13.548;2023-04-01T14:06:19;1.40;;;1.30;;
68593;SDS011;55563;52.416;13.548;2023-04-01T14:08:47;1.63;;;1.15;;
68593;SDS011;55563;52.416;13.548;2023-04-01T14:11:31;2.22;;;1.75;;
68593;SDS011;55563;52.416;13.548;2023-04-01T14:13:59;1.77;;;1.25;;
68593;SDS011;55563;52.416;13.548;2023-04-01T14:16:27;0.95;;;0.85;;
68593;SDS011;55563;52.416;13.548;2023-04-01T14:21:30;2.00;;;1.42;;
68593;SDS011;55563;52.416;13.548;2023-04-01T14:23:45;1.50;;;1.40;;
68593;SDS011;55563;52.416;13.548;2023-04-01T14:31:26;1.20;;;1.00;;
68593;SDS011;55563;52.416;13.548;2023-04-01T14:48:53;1.58;;;1.40;;
68593;SDS011;55563;52.416;13.548;2023-04-01T14:51:03;1.65;;;1.55;;
68593;SDS011;55563;52.416;13.548;2023-04-01T14:58:09;1.65;;;1.52;;
68593;SDS011;55563;52.416;13.548;2023-04-01T15:00:17;2.50;;;1.90;;
68593;SDS011;55563;52.416;13.548;2023-04-01T15:02:45;2.17;;;1.75;;
68593;SDS011;55563;52.416;13.548;2023-04-01T15:04:56;2.55;;;2.03;;
68593;SDS011;55563;52.416;13.548;2023-04-01T15:09:58;2.25;;;1.63;;
68593;SDS011;55563;52.416;13.548;2023-04-01T15:14:46;2.10;;;1.38;;
68593;SDS011;55563;52.416;13.548;2023-04-01T15:17:05;1.77;;;1.35;;
68593;SDS011;55563;52.416;13.548;2023-04-01T15:19:39;2.42;;;1.65;;
68593;SDS011;55563;52.416;13.548;2023-04-01T15:24:40;2.67;;;1.75;;
68593;SDS011;55563;52.416;13.548;2023-04-01T15:27:21;2.88;;;2.13;;
68593;SDS011;55563;52.416;13.548;2023-04-01T15:29:33;2.35;;;1.23;;
68593;SDS011;55563;52.416;13.548;2023-04-01T15:31:57;1.52;;;1.40;;
68593;SDS011;55563;52.416;13.548;2023-04-01T15:37:12;1.92;;;1.52;;
68593;SDS011;55563;52.416;13.548;2023-04-01T15:44:37;1.63;;;1.42;;
68593;SDS011;55563;52.416;13.548;2023-04-01T15:46:55;2.15;;;1.95;;
68593;SDS011;55563;52.416;13.548;2023-04-01T15:49:10;1.90;;;1.42;;
68593;SDS011;55563;52.416;13.548;2023-04-01T15:54:00;2.72;;;2.03;;
68593;SDS011;55563;52.416;13.548;2023-04-01T15:59:09;2.10;;;1.90;;
68593;SDS011;55563;52.416;13.548;2023-04-01T16:01:35;3.40;;;2.10;;
68593;SDS011;55563;52.416;13.548;2023-04-01T16:04:48;2.28;;;2.00;;
68593;SDS011;55563;52.416;13.548;2023-04-01T16:06:32;1.52;;;1.42;;
68593;SDS011;55563;52.416;13.548;2023-04-01T16:09:05;1.38;;;1.27;;
68593;SDS011;55563;52.416;13.548;2023-04-01T16:11:28;1.85;;;1.73;;
68593;SDS011;55563;52.416;13.548;2023-04-01T16:16:28;0.93;;;0.82;;
68593;SDS011;55563;52.416;13.548;2023-04-01T16:18:45;1.85;;;1.42;;
68593;SDS011;55563;52.416;13.548;2023-04-01T16:21:11;2.72;;;1.67;;
68593;SDS011;55563;52.416;13.548;2023-04-01T16:23:29;1.52;;;1.25;;
68593;SDS011;55563;52.416;13.548;2023-04-01T16:25:52;4.82;;;2.63;;
68593;SDS011;55563;52.416;13.548;2023-04-01T16:28:28;2.45;;;1.83;;
68593;SDS011;55563;52.416;13.548;2023-04-01T16:30:33;2.25;;;1.55;;
68593;SDS011;55563;52.416;13.548;2023-04-01T16:37:32;1.95;;;1.77;;
68593;SDS011;55563;52.416;13.548;2023-04-01T16:39:47;2.95;;;2.20;;
68593;SDS011;55563;52.416;13.548;2023-04-01T16:45:51;2.58;;;1.70;;
68593;SDS011;55563;52.416;13.548;2023-04-01T16:47:17;3.92;;;2.80;;
68593;SDS011;55563;52.416;13.548;2023-04-01T16:49:24;1.67;;;1.23;;
68593;SDS011;55563;52.416;13.548;2023-04-01T16:51:52;1.40;;;1.30;;
68593;SDS011;55563;52.416;13.548;2023-04-01T16:56:47;1.75;;;1.27;;
68593;SDS011;55563;52.416;13.548;2023-04-01T17:01:04;1.90;;;1.40;;
68593;SDS011;55563;52.416;13.548;2023-04-01T17:03:14;1.23;;;1.02;;
68593;SDS011;55563;52.416;13.548;2023-04-01T17:05:33;1.70;;;1.35;;
68593;SDS011;55563;52.416;13.548;2023-04-01T17:08:30;2.33;;;1.40;;
68593;SDS011;55563;52.416;13.548;2023-04-01T17:10:25;1.80;;;1.10;;
68593;SDS011;55563;52.416;13.548;2023-04-01T17:12:56;1.95;;;1.75;;
68593;SDS011;55563;52.416;13.548;2023-04-01T17:15:30;3.03;;;2.20;;
68593;SDS011;55563;52.416;13.548;2023-04-01T17:20:39;1.70;;;1.58;;
68593;SDS011;55563;52.416;13.548;2023-04-01T17:23:01;2.65;;;2.22;;
68593;SDS011;55563;52.416;13.548;2023-04-01T17:25:15;2.72;;;1.98;;
68593;SDS011;55563;52.416;13.548;2023-04-01T17:27:30;3.15;;;2.35;;
68593;SDS011;55563;52.416;13.548;2023-04-01T17:29:59;3.42;;;2.45;;
68593;SDS011;55563;52.416;13.548;2023-04-01T17:44:18;1.23;;;1.00;;
68593;SDS011;55563;52.416;13.548;2023-04-01T17:51:35;1.85;;;1.73;;
68593;SDS011;55563;52.416;13.548;2023-04-01T17:53:47;1.77;;;1.48;;
68593;SDS011;55563;52.416;13.548;2023-04-01T17:55:59;3.42;;;2.63;;
68593;SDS011;55563;52.416;13.548;2023-04-01T17:58:14;2.22;;;2.03;;
68593;SDS011;55563;52.416;13.548;2023-04-01T18:07:45;2.10;;;1.30;;
68593;SDS011;55563;52.416;13.548;2023-04-01T18:10:14;2.30;;;2.10;;
68593;SDS011;55563;52.416;13.548;2023-04-01T18:22:33;4.07;;;2.40;;
68593;SDS011;55563;52.416;13.548;2023-04-01T18:27:03;2.50;;;2.00;;
68593;SDS011;55563;52.416;13.548;2023-04-01T18:31:34;2.92;;;2.42;;
68593;SDS011;55563;52.416;13.548;2023-04-01T18:38:29;1.88;;;1.45;;
68593;SDS011;55563;52.416;13.548;2023-04-01T18:40:35;2.83;;;2.15;;
68593;SDS011;55563;52.416;13.548;2023-04-01T18:42:43;1.63;;;1.33;;
68593;SDS011;55563;52.416;13.548;2023-04-01T18:52:33;1.50;;;1.33;;
68593;SDS011;55563;52.416;13.548;2023-04-01T18:54:45;1.65;;;1.55;;
68593;SDS011;55563;52.416;13.548;2023-04-01T18:57:12;2.03;;;1.42;;
68593;SDS011;55563;52.416;13.548;2023-04-01T19:01:33;3.20;;;1.40;;
68593;SDS011;55563;52.416;13.548;2023-04-01T19:03:57;2.10;;;1.63;;
68593;SDS011;55563;52.416;13.548;2023-04-01T19:06:26;1.85;;;1.48;;
68593;SDS011;55563;52.416;13.548;2023-04-01T19:08:33;2.45;;;1.80;;
68593;SDS011;55563;52.416;13.548;2023-04-01T19:13:22;4.25;;;2.50;;
68593;SDS011;55563;52.416;13.548;2023-04-01T19:16:04;2.75;;;2.10;;
68593;SDS011;55563;52.416;13.548;2023-04-01T19:18:22;2.13;;;1.75;;
68593;SDS011;55563;52.416;13.548;2023-04-01T19:20:37;3.80;;;1.50;;